Terminal Aerodrome Forecast
Issued by NWS Corpus Christi, TX

Home | Current Version | Previous Version | Text Only | Print | Product List | Glossary On
Versions: 1 2 3 4 5 6 7 8 9 10 11 12 13 14 15
000
FTUS44 KCRP 292203 AAB
TAFCRP
TAF AMD
KCRP 292203Z 2922/3018 08013KT P6SM VCSH SCT035 BKN150
      TEMPO 2922/3001 6SM SHRA BR FEW015 BKN035
     FM300300 07006KT P6SM SCT025 BKN250
     FM300900 04008KT P6SM BKN015=

USA.gov is the U.S. government's official web portal to all federal, state and local government web resources and services.